Time;durP1;ratioP1;P1;durP2;ratioP2;P2;SDS_P1;SDS_P2;PMS_P1;PMS_P2;Temp;Humidity;BMP_temperature;BMP_pressure;BME280_temperature;BME280_humidity;BME280_pressure;Samples;Min_cycle;Max_cycle;Signal;HPM_P1;HPM_P2
2023/06/18 00:00:29;;;;;;;12.35;9.52;;;;;;;21.84;44.35;99668.41;4972293;28;20054;-86
2023/06/18 00:02:56;;;;;;;11.55;8.98;;;;;;;21.84;44.58;99673.00;4977264;28;20057;-86
2023/06/18 00:05:23;;;;;;;14.35;10.50;;;;;;;21.68;45.21;99672.41;4945161;28;20050;-86
2023/06/18 00:07:50;;;;;;;14.02;9.55;;;;;;;21.68;45.01;99674.31;4965630;28;20042;-87
2023/06/18 00:10:17;;;;;;;12.73;9.35;;;;;;;21.70;44.93;99674.91;4960873;28;20070;-86
2023/06/18 00:12:44;;;;;;;12.18;9.50;;;;;;;21.66;44.99;99674.50;4952318;28;21047;-86
2023/06/18 00:15:11;;;;;;;12.13;9.38;;;;;;;21.63;45.08;99674.94;4970876;28;20043;-86
2023/06/18 00:17:38;;;;;;;11.25;9.43;;;;;;;21.58;45.12;99680.13;4953589;28;20349;-87
2023/06/18 00:20:05;;;;;;;11.52;9.57;;;;;;;21.63;45.03;99677.63;4939216;28;20492;-86
2023/06/18 00:22:36;;;;;;;12.18;9.60;;;;;;;21.57;44.73;99674.94;4964005;28;20106;-87
2023/06/18 00:25:05;;;;;;;16.67;9.95;;;;;;;21.58;45.04;99682.03;4951412;28;20057;-86
2023/06/18 00:27:32;;;;;;;11.90;9.63;;;;;;;21.54;44.68;99670.78;4973758;28;20129;-86
2023/06/18 00:29:59;;;;;;;16.00;9.52;;;;;;;21.61;44.54;99670.78;4965571;28;20043;-86
2023/06/18 00:32:28;;;;;;;14.00;10.23;;;;;;;21.49;44.98;99670.59;4960959;28;20141;-86
2023/06/18 00:34:55;;;;;;;12.63;9.98;;;;;;;21.43;45.27;99671.44;4962513;28;20630;-87
2023/06/18 00:37:25;;;;;;;12.57;9.55;;;;;;;21.40;45.62;99671.88;4964283;28;20051;-87
2023/06/18 00:39:52;;;;;;;14.35;9.70;;;;;;;21.42;45.25;99676.03;4970891;28;20077;-86
2023/06/18 00:42:20;;;;;;;13.82;9.68;;;;;;;21.39;45.60;99671.00;4967013;28;20046;-87
2023/06/18 00:44:47;;;;;;;14.80;10.30;;;;;;;21.39;45.43;99670.19;4977871;28;20077;-86
2023/06/18 00:47:14;;;;;;;13.65;10.23;;;;;;;21.24;45.80;99664.97;4970076;28;20470;-86
2023/06/18 00:49:44;;;;;;;13.63;9.77;;;;;;;21.17;45.90;99665.00;4944109;28;20466;-86
2023/06/18 00:52:14;;;;;;;12.68;9.85;;;;;;;21.18;45.89;99663.94;4966011;28;20061;-86
2023/06/18 00:54:44;;;;;;;10.45;9.25;;;;;;;21.13;46.24;99658.34;4958634;28;20046;-86
2023/06/18 00:57:13;;;;;;;14.75;9.70;;;;;;;21.15;46.14;99660.84;4953267;28;20196;-86
2023/06/18 00:59:45;;;;;;;13.98;10.45;;;;;;;21.13;46.16;99652.13;4962370;28;20815;-86
2023/06/18 01:02:12;;;;;;;13.20;10.27;;;;;;;21.03;46.57;99658.75;4947539;28;20404;-86
2023/06/18 01:04:40;;;;;;;14.48;10.18;;;;;;;21.03;46.39;99653.38;4953671;28;20058;-86
2023/06/18 01:07:13;;;;;;;14.68;10.30;;;;;;;21.05;46.18;99657.75;4954223;28;20109;-86
2023/06/18 01:09:43;;;;;;;14.90;10.38;;;;;;;21.07;45.98;99659.19;4952166;28;20054;-86
2023/06/18 01:12:10;;;;;;;12.35;10.27;;;;;;;21.07;46.05;99663.78;4959721;28;20049;-86
2023/06/18 01:14:37;;;;;;;14.13;9.57;;;;;;;21.00;46.22;99661.06;4957260;28;20054;-86
2023/06/18 01:17:05;;;;;;;14.18;10.30;;;;;;;20.99;46.30;99654.84;4949529;28;20166;-86
2023/06/18 01:19:49;;;;;;;13.18;9.95;;;;;;;20.91;46.67;99660.41;4972546;28;20129;-86
2023/06/18 01:22:26;;;;;;;14.30;9.95;;;;;;;20.89;46.77;99653.56;4956726;28;20516;-86
2023/06/18 01:24:58;;;;;;;13.00;10.23;;;;;;;20.86;46.57;99660.22;4944588;28;20046;-86
2023/06/18 01:27:27;;;;;;;20.42;10.45;;;;;;;20.84;46.66;99656.91;4975949;28;20563;-86
2023/06/18 01:29:55;;;;;;;14.57;10.20;;;;;;;20.82;46.67;99650.88;4931090;28;20133;-86
2023/06/18 01:32:22;;;;;;;12.48;9.57;;;;;;;20.81;46.64;99660.00;4934703;28;20049;-86
2023/06/18 01:34:53;;;;;;;14.35;9.70;;;;;;;20.80;46.68;99656.47;4959342;28;20046;-86
2023/06/18 01:37:31;;;;;;;13.77;10.10;;;;;;;20.75;46.79;99655.44;4967736;28;20492;-86
2023/06/18 01:40:27;;;;;;;13.90;10.65;;;;;;;20.58;47.10;99655.84;4940826;28;20054;-87
2023/06/18 01:43:08;;;;;;;14.02;10.23;;;;;;;20.43;47.23;99659.72;4952451;28;20054;-87
2023/06/18 01:45:42;;;;;;;13.93;10.10;;;;;;;20.50;46.97;99658.69;4961719;28;20050;-86
2023/06/18 01:48:10;;;;;;;14.38;10.70;;;;;;;20.64;46.83;99656.88;4966760;28;20525;-86
2023/06/18 01:50:38;;;;;;;13.82;10.40;;;;;;;20.58;46.81;99652.28;4952772;28;20042;-87
2023/06/18 01:53:06;;;;;;;12.63;10.05;;;;;;;20.63;46.60;99657.09;4964223;28;20050;-87
2023/06/18 01:55:37;;;;;;;12.23;9.93;;;;;;;20.62;46.39;99656.25;4945696;28;20065;-87
2023/06/18 01:58:04;;;;;;;12.77;10.43;;;;;;;20.62;46.24;99660.81;4942744;28;20046;-87
2023/06/18 02:00:32;;;;;;;14.48;9.98;;;;;;;20.58;46.57;99645.06;4954287;28;20050;-86
2023/06/18 02:03:00;;;;;;;13.75;10.45;;;;;;;20.56;46.62;99649.81;4962456;28;20153;-86
2023/06/18 02:05:28;;;;;;;13.80;9.82;;;;;;;20.46;46.90;99641.28;5002541;28;20046;-86
2023/06/18 02:07:54;;;;;;;12.30;9.32;;;;;;;20.45;46.84;99646.84;4941704;28;20042;-86
2023/06/18 02:10:21;;;;;;;11.18;9.57;;;;;;;20.45;47.07;99644.97;4986388;28;20728;-87
2023/06/18 02:12:49;;;;;;;13.20;10.15;;;;;;;20.38;46.86;99639.59;4961401;28;20150;-86
2023/06/18 02:15:16;;;;;;;17.45;10.50;;;;;;;20.38;47.08;99636.91;4955697;28;20045;-85
2023/06/18 02:17:44;;;;;;;11.88;9.95;;;;;;;20.34;47.36;99659.06;4965098;28;20125;-86
2023/06/18 02:20:12;;;;;;;12.13;10.15;;;;;;;20.34;46.90;99651.00;4946506;28;20049;-87
2023/06/18 02:22:39;;;;;;;12.63;10.10;;;;;;;20.26;47.20;99648.47;4954337;28;20511;-86
2023/06/18 02:25:06;;;;;;;12.07;9.95;;;;;;;20.22;47.33;99653.44;4942461;28;20118;-86
2023/06/18 02:27:33;;;;;;;15.35;10.80;;;;;;;20.24;47.28;99656.75;4953055;28;20046;-86
2023/06/18 02:30:01;;;;;;;13.32;10.13;;;;;;;20.25;47.40;99657.59;4953069;28;20738;-86
2023/06/18 02:32:31;;;;;;;12.23;10.10;;;;;;;20.21;47.36;99659.03;4954507;28;20374;-86
2023/06/18 02:34:58;;;;;;;15.80;10.23;;;;;;;20.23;47.13;99654.28;4966495;28;20056;-86
2023/06/18 02:37:27;;;;;;;13.57;10.77;;;;;;;20.16;47.33;99651.56;4966775;28;20544;-86
2023/06/18 02:39:55;;;;;;;12.18;9.50;;;;;;;20.10;47.47;99653.22;4955119;28;20047;-87
2023/06/18 02:42:22;;;;;;;14.95;10.15;;;;;;;20.10;47.28;99658.59;4965563;28;20053;-86
2023/06/18 02:44:49;;;;;;;15.13;10.65;;;;;;;19.99;47.71;99651.06;4969507;28;20534;-86
2023/06/18 02:47:15;;;;;;;16.05;10.70;;;;;;;19.98;47.77;99648.59;4954519;28;20125;-87
2023/06/18 02:49:42;;;;;;;13.52;9.63;;;;;;;20.01;47.74;99643.63;4959587;28;20073;-87
2023/06/18 02:52:09;;;;;;;12.82;10.18;;;;;;;19.95;48.02;99655.22;4945125;28;20054;-86
2023/06/18 02:54:37;;;;;;;17.02;10.07;;;;;;;19.93;48.24;99654.59;4955421;28;20047;-86
2023/06/18 02:57:04;;;;;;;15.90;10.50;;;;;;;19.92;48.23;99652.91;4956603;28;20109;-86
2023/06/18 02:59:31;;;;;;;13.05;10.02;;;;;;;19.87;48.21;99652.69;4945328;28;20500;-86
2023/06/18 03:01:58;;;;;;;14.70;10.02;;;;;;;19.84;48.30;99653.91;4969544;28;20118;-86
2023/06/18 03:04:25;;;;;;;16.33;10.68;;;;;;;19.88;48.14;99659.75;4970704;28;20528;-86
2023/06/18 03:06:54;;;;;;;14.68;10.93;;;;;;;19.85;48.14;99660.97;4971960;28;20405;-85
2023/06/18 03:09:21;;;;;;;15.30;10.73;;;;;;;19.81;47.91;99667.78;4971659;28;20459;-86
2023/06/18 03:11:48;;;;;;;13.38;9.80;;;;;;;19.77;48.38;99668.38;4945571;28;20662;-86
2023/06/18 03:14:16;;;;;;;13.80;10.20;;;;;;;19.77;48.61;99676.47;4938529;28;20054;-87
2023/06/18 03:16:43;;;;;;;11.80;9.35;;;;;;;19.80;48.22;99678.78;4966749;28;20038;-87
2023/06/18 03:19:11;;;;;;;13.88;10.18;;;;;;;19.79;47.92;99671.72;4943344;28;20374;-86
2023/06/18 03:21:40;;;;;;;12.48;10.10;;;;;;;19.70;48.09;99679.16;4956237;28;20039;-87
2023/06/18 03:24:07;;;;;;;15.75;10.30;;;;;;;19.74;48.17;99688.47;4974815;28;20050;-86
2023/06/18 03:26:36;;;;;;;14.27;10.45;;;;;;;19.73;48.09;99686.81;4941333;28;20050;-86
2023/06/18 03:29:03;;;;;;;12.50;10.00;;;;;;;19.67;48.41;99684.94;4980823;28;20223;-87
2023/06/18 03:31:32;;;;;;;15.35;10.20;;;;;;;19.68;48.68;99686.59;4956264;28;20451;-86
2023/06/18 03:34:02;;;;;;;15.07;10.68;;;;;;;19.64;48.44;99680.75;4969652;28;20046;-86
2023/06/18 03:36:34;;;;;;;13.05;10.48;;;;;;;19.64;48.48;99693.34;4935562;28;20538;-86
2023/06/18 03:39:01;;;;;;;16.42;10.65;;;;;;;19.60;48.64;99681.34;4942777;28;20601;-86
2023/06/18 03:41:28;;;;;;;13.88;10.15;;;;;;;19.65;48.50;99684.25;4953637;28;20118;-87
2023/06/18 03:43:57;;;;;;;16.10;10.23;;;;;;;19.61;48.78;99689.19;4964878;28;20058;-86
2023/06/18 03:46:25;;;;;;;15.95;10.65;;;;;;;19.72;48.38;99694.06;4960563;28;20069;-87
2023/06/18 03:48:52;;;;;;;13.88;11.23;;;;;;;19.73;48.56;99684.13;4959020;28;20055;-86
2023/06/18 03:51:19;;;;;;;15.45;10.50;;;;;;;19.73;48.33;99686.81;4938644;28;20567;-86
2023/06/18 03:53:46;;;;;;;15.13;10.38;;;;;;;19.88;48.10;99687.53;4944600;28;20061;-86
2023/06/18 03:56:13;;;;;;;12.95;10.27;;;;;;;19.94;48.31;99684.00;4940973;28;20062;-87
2023/06/18 03:58:40;;;;;;;13.80;10.30;;;;;;;20.12;48.19;99678.09;4920367;28;20061;-87
2023/06/18 04:01:08;;;;;;;12.38;10.35;;;;;;;20.41;47.82;99680.69;4961897;28;20116;-87
2023/06/18 04:03:36;;;;;;;16.77;11.00;;;;;;;20.74;47.00;99676.19;4956848;28;20135;-87
2023/06/18 04:06:03;;;;;;;13.73;10.77;;;;;;;20.93;46.25;99682.66;4952275;28;20078;-87
2023/06/18 04:08:31;;;;;;;14.05;10.30;;;;;;;20.98;45.88;99669.34;4958225;28;20051;-86
2023/06/18 04:10:58;;;;;;;15.85;11.43;;;;;;;20.92;46.14;99682.88;4943854;28;20141;-86
2023/06/18 04:13:25;;;;;;;14.65;10.48;;;;;;;20.77;46.13;99678.47;4937592;28;20050;-87
2023/06/18 04:15:52;;;;;;;15.23;11.07;;;;;;;20.72;46.10;99674.75;4969177;28;20050;-86
2023/06/18 04:18:20;;;;;;;14.70;10.60;;;;;;;20.67;46.42;99682.63;4945453;28;20432;-86
2023/06/18 04:20:47;;;;;;;13.52;10.60;;;;;;;20.54;45.86;99686.09;4958854;28;20163;-86
2023/06/18 04:23:19;;;;;;;13.63;10.50;;;;;;;20.53;46.43;99687.13;4936553;28;20078;-87
2023/06/18 04:25:46;;;;;;;14.57;11.50;;;;;;;20.47;46.34;99685.25;4979161;28;20050;-86
2023/06/18 04:28:13;;;;;;;15.50;10.50;;;;;;;20.50;46.31;99682.13;4967787;28;20054;-86
2023/06/18 04:30:40;;;;;;;12.65;9.32;;;;;;;20.53;46.19;99684.41;4958242;28;20053;-86
2023/06/18 04:33:08;;;;;;;13.63;10.25;;;;;;;20.41;46.52;99686.91;4932314;28;20411;-85
2023/06/18 04:35:34;;;;;;;15.35;11.43;;;;;;;20.41;46.10;99688.78;4933309;28;20520;-86
2023/06/18 04:38:03;;;;;;;15.85;10.82;;;;;;;20.48;46.54;99689.59;4956499;28;20106;-86
2023/06/18 04:40:29;;;;;;;13.43;10.35;;;;;;;20.39;46.49;99688.97;4973294;28;20427;-86
2023/06/18 04:42:57;;;;;;;14.07;10.63;;;;;;;20.43;46.49;99694.78;4936818;28;20302;-86
2023/06/18 04:45:30;;;;;;;14.85;10.90;;;;;;;20.47;46.61;99688.78;4942068;28;20058;-85
2023/06/18 04:47:58;;;;;;;13.85;10.80;;;;;;;20.55;46.57;99682.38;4957833;28;20046;-86
2023/06/18 04:50:25;;;;;;;14.27;10.90;;;;;;;20.53;46.70;99684.41;4936748;28;20141;-86
2023/06/18 04:52:52;;;;;;;14.60;10.55;;;;;;;20.51;46.45;99694.59;4937566;28;20046;-85
2023/06/18 04:55:20;;;;;;;15.27;10.60;;;;;;;20.48;46.59;99690.44;4970444;28;20446;-85
2023/06/18 04:57:47;;;;;;;15.05;11.57;;;;;;;20.49;46.30;99696.66;4976407;28;21543;-86
2023/06/18 05:00:16;;;;;;;16.77;10.38;;;;;;;20.46;46.69;99687.13;4953620;28;20046;-86
2023/06/18 05:02:46;;;;;;;16.50;10.60;;;;;;;20.43;46.90;99692.06;4937975;28;20054;-85
2023/06/18 05:05:13;;;;;;;14.57;10.65;;;;;;;20.43;47.05;99692.06;4943796;28;20046;-87
2023/06/18 05:07:42;;;;;;;15.25;11.63;;;;;;;20.37;47.02;99691.03;4953689;28;20050;-85
2023/06/18 05:10:10;;;;;;;13.63;11.07;;;;;;;20.40;46.93;99685.22;4935692;28;20788;-87
2023/06/18 05:12:38;;;;;;;19.30;10.82;;;;;;;20.31;47.48;99686.47;4921293;28;20050;-87
2023/06/18 05:15:06;;;;;;;14.73;11.25;;;;;;;20.29;47.32;99685.81;4956160;28;20519;-85
2023/06/18 05:17:34;;;;;;;19.33;11.43;;;;;;;20.27;47.45;99693.28;4954724;28;20488;-85
2023/06/18 05:20:06;;;;;;;12.82;11.00;;;;;;;20.27;47.35;99683.31;4940294;28;20050;-86
2023/06/18 05:22:33;;;;;;;14.23;11.05;;;;;;;20.30;47.34;99691.03;4955138;28;20075;-87
2023/06/18 05:25:00;;;;;;;12.32;10.48;;;;;;;20.34;47.53;99689.56;4953325;28;20186;-86
2023/06/18 05:27:30;;;;;;;13.55;11.07;;;;;;;20.39;47.27;99695.19;4926946;28;20046;-87
2023/06/18 05:29:59;;;;;;;15.65;11.15;;;;;;;20.38;47.60;99687.31;4939072;28;20518;-86
2023/06/18 05:32:26;;;;;;;12.40;10.25;;;;;;;20.35;47.30;99690.38;4935997;28;20574;-87
2023/06/18 05:34:56;;;;;;;15.27;10.95;;;;;;;20.39;47.55;99681.69;4948436;28;20070;-87
2023/06/18 05:37:24;;;;;;;17.50;11.32;;;;;;;20.48;47.81;99682.34;4965950;28;20134;-85
2023/06/18 05:39:54;;;;;;;14.35;11.05;;;;;;;20.51;47.66;99689.22;4934961;28;20050;-86
2023/06/18 05:42:23;;;;;;;15.35;10.75;;;;;;;20.48;47.66;99686.91;4930238;28;20495;-87
2023/06/18 05:44:50;;;;;;;19.80;10.93;;;;;;;20.62;47.59;99680.53;4950083;28;20042;-86
2023/06/18 05:47:17;;;;;;;12.93;10.90;;;;;;;20.65;47.57;99682.81;4939318;28;20129;-85
2023/06/18 05:49:44;;;;;;;15.25;11.05;;;;;;;20.69;47.79;99676.00;4974235;28;20051;-86
2023/06/18 05:52:11;;;;;;;12.82;9.95;;;;;;;20.75;47.75;99679.72;4920973;28;20458;-86
2023/06/18 05:54:39;;;;;;;11.70;10.50;;;;;;;20.76;47.47;99679.53;4945174;28;20266;-87
2023/06/18 05:57:06;;;;;;;13.57;10.75;;;;;;;20.86;47.90;99687.19;4896348;28;20047;-85
2023/06/18 05:59:33;;;;;;;16.05;11.20;;;;;;;20.87;47.53;99678.09;4957954;28;20050;-87
2023/06/18 06:02:08;;;;;;;15.20;11.40;;;;;;;20.95;47.44;99685.16;4934104;28;20062;-86
2023/06/18 06:04:35;;;;;;;16.33;11.38;;;;;;;21.01;47.37;99685.16;4942728;28;20047;-86
2023/06/18 06:07:04;;;;;;;14.27;10.55;;;;;;;21.02;46.93;99684.09;4923579;28;20428;-86
2023/06/18 06:09:32;;;;;;;13.82;10.95;;;;;;;21.14;46.76;99686.16;4945161;28;20054;-87
2023/06/18 06:11:59;;;;;;;16.02;10.63;;;;;;;21.06;46.53;99683.69;4942706;28;20039;-85
2023/06/18 06:14:26;;;;;;;15.75;11.23;;;;;;;21.06;46.37;99681.81;4944756;28;20055;-86
2023/06/18 06:16:57;;;;;;;13.38;10.65;;;;;;;21.10;46.23;99691.16;4955871;28;20406;-87
2023/06/18 06:19:25;;;;;;;13.80;10.52;;;;;;;21.18;46.07;99682.84;4971728;28;20265;-86
2023/06/18 06:21:52;;;;;;;15.30;11.20;;;;;;;21.17;46.21;99689.31;4969375;28;20051;-87
2023/06/18 06:24:19;;;;;;;16.13;10.93;;;;;;;21.22;45.86;99680.59;4944446;28;20057;-86
2023/06/18 06:26:46;;;;;;;15.32;11.15;;;;;;;21.28;46.25;99690.53;4940946;28;20047;-86
2023/06/18 06:29:13;;;;;;;11.95;9.95;;;;;;;21.31;46.30;99681.19;4972314;28;20452;-86
2023/06/18 06:31:40;;;;;;;13.23;10.18;;;;;;;21.34;46.18;99678.88;4945516;28;20050;-86
2023/06/18 06:34:07;;;;;;;15.05;10.50;;;;;;;21.33;45.88;99679.13;4939962;28;20061;-86
2023/06/18 06:36:35;;;;;;;12.75;9.95;;;;;;;21.41;46.17;99685.16;4953335;28;20104;-86
2023/06/18 06:39:03;;;;;;;13.15;10.63;;;;;;;21.42;46.16;99683.28;4965552;28;20120;-86
2023/06/18 06:41:30;;;;;;;14.82;11.27;;;;;;;;;;4975190;28;20214;-86
2023/06/18 06:44:00;;;;;;;15.30;10.82;;;;;;;21.56;46.00;99679.50;4959563;28;20070;-86
2023/06/18 06:46:44;;;;;;;16.05;10.18;;;;;;;21.58;45.78;99682.84;4960871;28;20512;-86
2023/06/18 06:49:31;;;;;;;19.33;11.02;;;;;;;21.63;45.74;99679.50;4965593;28;20137;-86
2023/06/18 06:52:07;;;;;;;14.55;10.48;;;;;;;21.74;45.76;99681.53;4957298;28;20649;-86
2023/06/18 06:54:34;;;;;;;13.20;10.00;;;;;;;21.76;46.26;99675.94;4922166;28;20455;-86
2023/06/18 06:57:01;;;;;;;15.65;11.55;;;;;;;21.80;45.94;99669.06;4956942;28;20511;-86
2023/06/18 06:59:28;;;;;;;13.38;11.48;;;;;;;21.82;45.87;99670.50;4967170;28;20094;-87
2023/06/18 07:01:55;;;;;;;11.77;9.82;;;;;;;21.82;45.70;99667.78;4928777;28;20057;-85
2023/06/18 07:04:22;;;;;;;14.68;10.23;;;;;;;21.89;45.80;99682.13;4972935;28;20073;-85
2023/06/18 07:06:49;;;;;;;14.70;9.90;;;;;;;21.94;45.99;99680.66;4965498;28;20062;-86
2023/06/18 07:09:16;;;;;;;16.80;9.88;;;;;;;22.00;46.12;99668.97;4949417;28;20070;-87
2023/06/18 07:11:43;;;;;;;14.18;10.15;;;;;;;22.01;45.55;99679.59;4971333;28;20503;-86
2023/06/18 07:14:10;;;;;;;13.00;10.57;;;;;;;22.07;46.27;99673.31;4967144;28;20508;-87
2023/06/18 07:16:37;;;;;;;15.35;10.73;;;;;;;22.11;45.95;99677.25;4971552;28;20054;-87
2023/06/18 07:19:04;;;;;;;15.73;10.40;;;;;;;22.10;45.98;99678.28;4937970;28;20046;-87
2023/06/18 07:21:31;;;;;;;15.15;9.98;;;;;;;22.11;45.95;99673.72;4964771;28;20043;-86
2023/06/18 07:23:58;;;;;;;12.77;10.35;;;;;;;22.16;46.15;99671.22;4933991;28;20113;-86
2023/06/18 07:26:25;;;;;;;15.05;10.38;;;;;;;22.22;45.97;99675.78;4932996;28;20330;-86
2023/06/18 07:28:52;;;;;;;13.25;10.13;;;;;;;22.23;46.00;99674.72;4951399;28;20065;-86
2023/06/18 07:31:19;;;;;;;12.57;10.13;;;;;;;22.29;46.06;99670.34;4952602;28;20070;-86
2023/06/18 07:33:46;;;;;;;14.73;10.10;;;;;;;22.27;45.77;99667.84;4955344;28;20055;-86
2023/06/18 07:36:13;;;;;;;11.55;10.35;;;;;;;22.33;45.65;99669.69;4945283;28;20042;-86
2023/06/18 07:38:42;;;;;;;10.70;9.07;;;;;;;22.42;45.83;99678.38;4957531;28;20118;-85
2023/06/18 07:41:09;;;;;;;15.90;10.65;;;;;;;22.46;45.29;99676.06;4968067;28;20137;-86
2023/06/18 07:43:36;;;;;;;13.43;10.20;;;;;;;22.47;44.89;99667.75;4971527;28;20058;-86
2023/06/18 07:46:03;;;;;;;13.27;9.18;;;;;;;22.52;44.37;99669.78;4960276;28;21194;-85
2023/06/18 07:48:30;;;;;;;14.65;10.60;;;;;;;22.58;44.94;99673.50;4954725;28;20050;-85
2023/06/18 07:50:57;;;;;;;15.25;10.68;;;;;;;22.58;44.20;99670.78;4937680;28;20594;-85
2023/06/18 07:53:24;;;;;;;12.50;9.50;;;;;;;22.67;44.66;99683.84;4961284;28;20090;-88
2023/06/18 07:55:51;;;;;;;12.93;9.75;;;;;;;22.72;44.64;99677.78;4957885;28;20042;-87
2023/06/18 07:58:19;;;;;;;13.80;9.48;;;;;;;22.79;43.72;99677.72;4972028;28;20042;-87
2023/06/18 08:00:46;;;;;;;18.65;9.55;;;;;;;22.80;43.05;99671.28;4981758;28;20061;-86
2023/06/18 08:03:13;;;;;;;10.68;8.15;;;;;;;22.80;43.79;99668.56;4973743;28;20058;-86
2023/06/18 08:05:40;;;;;;;14.23;9.20;;;;;;;22.85;43.96;99666.84;4943679;28;20555;-87
2023/06/18 08:08:07;;;;;;;11.45;7.88;;;;;;;22.89;44.17;99664.53;4957248;28;20047;-86
2023/06/18 08:10:34;;;;;;;12.43;9.25;;;;;;;22.90;44.11;99656.19;4952459;28;20050;-87
2023/06/18 08:13:02;;;;;;;13.30;9.48;;;;;;;22.92;44.00;99655.97;4976645;28;20057;-86
2023/06/18 08:15:32;;;;;;;10.50;9.07;;;;;;;22.95;43.63;99656.38;4938195;28;20370;-86
2023/06/18 08:17:58;;;;;;;11.73;8.43;;;;;;;23.01;43.20;99656.56;4944724;28;20096;-87
2023/06/18 08:20:25;;;;;;;16.67;9.30;;;;;;;23.06;42.90;99657.56;4969590;28;20547;-87
2023/06/18 08:22:52;;;;;;;11.27;8.50;;;;;;;23.06;42.75;99654.84;4980792;28;20097;-87
2023/06/18 08:25:19;;;;;;;10.57;8.30;;;;;;;23.08;42.64;99649.22;4970239;28;20047;-86
2023/06/18 08:27:46;;;;;;;13.20;9.20;;;;;;;23.17;43.33;99659.53;4969806;28;20050;-87
2023/06/18 08:30:13;;;;;;;10.90;8.65;;;;;;;23.18;42.56;99647.66;4961054;28;20136;-87
2023/06/18 08:32:40;;;;;;;12.80;8.82;;;;;;;23.21;43.10;99649.09;4956596;28;20258;-86
2023/06/18 08:35:07;;;;;;;12.70;9.10;;;;;;;23.27;42.80;99644.66;4974420;28;20062;-87
2023/06/18 08:37:35;;;;;;;12.93;9.25;;;;;;;23.28;42.71;99643.59;4949305;28;20527;-87
2023/06/18 08:40:03;;;;;;;11.32;8.82;;;;;;;23.29;42.33;99640.66;4964790;28;20114;-87
2023/06/18 08:42:30;;;;;;;13.82;8.95;;;;;;;23.35;42.75;99638.94;4940888;28;20051;-88
2023/06/18 08:44:57;;;;;;;13.15;9.05;;;;;;;23.37;42.41;99637.66;4939488;28;20056;-86
2023/06/18 08:47:27;;;;;;;11.88;8.38;;;;;;;23.41;42.36;99635.34;4940374;28;20133;-87
2023/06/18 08:49:58;;;;;;;12.57;9.25;;;;;;;23.48;41.79;99637.97;4931937;28;20498;-87
2023/06/18 08:52:29;;;;;;;11.23;8.63;;;;;;;23.49;41.89;99631.50;4961642;28;20054;-86
2023/06/18 08:54:59;;;;;;;14.25;9.50;;;;;;;23.56;41.93;99634.94;4940877;28;20082;-88
2023/06/18 08:57:43;;;;;;;13.18;8.98;;;;;;;23.47;41.74;99626.31;4972822;28;20065;-87
2023/06/18 09:00:11;;;;;;;12.25;8.85;;;;;;;23.61;42.04;99635.97;4954640;28;20081;-86
2023/06/18 09:02:38;;;;;;;12.68;9.60;;;;;;;23.65;41.94;99625.47;4965702;28;20288;-87
2023/06/18 09:05:05;;;;;;;13.75;9.25;;;;;;;23.69;41.73;99631.28;4951029;28;20572;-86
2023/06/18 09:07:34;;;;;;;11.45;8.82;;;;;;;23.68;41.70;99619.59;4952910;28;20100;-87
2023/06/18 09:10:03;;;;;;;10.07;8.25;;;;;;;23.76;42.07;99629.34;4954864;28;20126;-86
2023/06/18 09:12:30;;;;;;;9.60;8.32;;;;;;;23.80;42.14;99630.56;4974993;28;20062;-87
2023/06/18 09:14:57;;;;;;;13.50;8.63;;;;;;;23.88;42.23;99622.09;4967716;28;20061;-88
2023/06/18 09:17:24;;;;;;;10.63;9.43;;;;;;;23.90;41.82;99620.00;4969993;28;20499;-87
2023/06/18 09:19:52;;;;;;;10.13;8.70;;;;;;;23.91;41.98;99615.41;4953173;28;20408;-88
2023/06/18 09:22:20;;;;;;;10.77;8.32;;;;;;;23.94;41.94;99613.06;4943925;28;20515;-87
2023/06/18 09:24:57;;;;;;;10.25;7.50;;;;;;;23.97;41.80;99623.47;4941543;28;20050;-88
2023/06/18 09:27:33;;;;;;;11.25;8.18;;;;;;;23.94;41.79;99618.50;4959711;28;20499;-87
2023/06/18 09:30:00;;;;;;;10.95;8.55;;;;;;;24.03;41.29;99613.56;4965374;28;20411;-87
2023/06/18 09:32:28;;;;;;;12.18;8.18;;;;;;;24.05;41.60;99612.28;4954889;28;20054;-87
2023/06/18 09:34:55;;;;;;;12.05;8.88;;;;;;;24.06;41.46;99610.41;4957626;28;20049;-88
2023/06/18 09:37:26;;;;;;;11.32;7.88;;;;;;;24.07;41.18;99605.78;4959658;28;20057;-88
2023/06/18 09:39:53;;;;;;;10.32;8.27;;;;;;;24.12;41.30;99601.34;4957803;28;20266;-87
2023/06/18 09:42:28;;;;;;;9.63;7.95;;;;;;;24.11;41.45;99602.41;4968004;28;20440;-87
2023/06/18 09:44:55;;;;;;;10.88;9.63;;;;;;;24.17;41.26;99604.22;4972617;28;21169;-88
2023/06/18 09:47:23;;;;;;;10.07;8.38;;;;;;;24.18;41.11;99600.41;4935755;28;20567;-88
2023/06/18 09:49:52;;;;;;;9.60;8.02;;;;;;;24.22;41.46;99603.50;4940978;28;20571;-87
2023/06/18 09:52:24;;;;;;;13.43;9.07;;;;;;;24.18;41.40;99597.72;4985025;28;20122;-89
2023/06/18 09:54:51;;;;;;;11.77;8.82;;;;;;;24.21;41.16;99599.94;4958575;28;20060;-88
2023/06/18 09:57:19;;;;;;;11.13;9.00;;;;;;;24.20;40.93;99594.78;4934161;28;20491;-88
2023/06/18 09:59:45;;;;;;;13.07;8.20;;;;;;;24.23;41.04;99594.31;4960525;28;20057;-87
2023/06/18 10:02:23;;;;;;;12.10;8.45;;;;;;;24.20;40.99;99594.78;4973349;28;20491;-88
2023/06/18 10:04:50;;;;;;;11.48;8.40;;;;;;;24.31;41.31;99595.88;4967805;28;20511;-88
2023/06/18 10:07:17;;;;;;;9.15;7.95;;;;;;;24.36;40.70;99591.41;4958955;28;20142;-88
2023/06/18 10:09:46;;;;;;;9.43;7.88;;;;;;;24.40;39.88;99592.59;4936494;28;20050;-89
2023/06/18 10:12:15;;;;;;;10.02;7.80;;;;;;;24.40;39.73;99581.75;4955222;28;20137;-88
2023/06/18 10:14:45;;;;;;;8.85;7.60;;;;;;;24.48;38.73;99581.44;4965264;28;20054;-89
2023/06/18 10:17:23;;;;;;;16.38;7.95;;;;;;;24.44;38.06;99576.66;4943262;28;20667;-87
2023/06/18 10:20:01;;;;;;;10.35;8.07;;;;;;;24.48;38.63;99584.13;4958948;28;20046;-86
2023/06/18 10:22:29;;;;;;;10.68;8.35;;;;;;;24.55;38.21;99581.34;4976148;28;20334;-89
2023/06/18 10:24:58;;;;;;;12.15;8.30;;;;;;;24.57;38.12;99579.19;4947612;28;20046;-87
2023/06/18 10:27:25;;;;;;;10.35;8.18;;;;;;;24.60;37.84;99573.31;4972465;28;20149;-87
2023/06/18 10:29:52;;;;;;;10.60;8.35;;;;;;;24.62;37.54;99568.44;4967349;28;20169;-86
2023/06/18 10:32:19;;;;;;;11.98;8.80;;;;;;;24.66;37.49;99574.25;4963821;28;20043;-86
2023/06/18 10:34:46;;;;;;;10.48;7.90;;;;;;;24.68;37.56;99566.72;4975894;28;20046;-87
2023/06/18 10:37:13;;;;;;;8.98;7.32;;;;;;;24.69;37.47;99565.63;4939773;28;20057;-86
2023/06/18 10:39:44;;;;;;;10.55;8.35;;;;;;;24.72;37.03;99565.16;4941369;28;20054;-87
2023/06/18 10:42:13;;;;;;;10.90;8.70;;;;;;;24.72;36.54;99556.19;4954146;28;20054;-87
2023/06/18 10:44:45;;;;;;;11.05;8.38;;;;;;;24.73;36.26;99553.25;4962294;28;20121;-87
2023/06/18 10:47:29;;;;;;;10.52;8.63;;;;;;;24.71;35.71;99547.22;4959091;28;20046;-87
2023/06/18 10:50:02;;;;;;;9.82;7.57;;;;;;;24.77;35.44;99554.41;4969832;28;20081;-85
2023/06/18 10:52:38;;;;;;;9.23;7.65;;;;;;;24.78;35.55;99555.25;4963283;28;20045;-87
2023/06/18 10:55:08;;;;;;;9.63;6.97;;;;;;;24.82;35.95;99553.72;4966304;28;20133;-88
2023/06/18 10:57:44;;;;;;;10.05;7.35;;;;;;;24.81;35.19;99552.09;4972685;28;20125;-88
2023/06/18 11:00:25;;;;;;;11.32;7.68;;;;;;;24.84;33.61;99541.56;4965383;28;20058;-88
2023/06/18 11:02:58;;;;;;;18.13;8.73;;;;;;;24.87;34.64;99543.78;4970918;28;20047;-88
2023/06/18 11:05:32;;;;;;;10.68;7.38;;;;;;;24.92;34.85;99545.81;4943516;28;21025;-88
2023/06/18 11:08:07;;;;;;;11.07;8.10;;;;;;;24.95;34.90;99541.78;4943120;28;20130;-88
2023/06/18 11:10:47;;;;;;;10.35;8.27;;;;;;;24.94;34.81;99535.53;4970712;28;20051;-88
2023/06/18 11:13:15;;;;;;;10.40;7.90;;;;;;;24.98;34.78;99533.97;4958774;28;20574;-88
2023/06/18 11:16:09;;;;;;;11.60;8.32;;;;;;;24.91;35.01;99536.03;4943384;28;20776;-86
2023/06/18 11:18:36;;;;;;;8.68;7.22;;;;;;;25.02;34.93;99531.63;4970204;28;20534;-86
2023/06/18 11:21:03;;;;;;;9.10;7.10;;;;;;;25.01;34.62;99528.09;4968018;28;20051;-87
2023/06/18 11:23:31;;;;;;;9.32;7.50;;;;;;;25.05;34.41;99526.53;4972808;28;20057;-86
2023/06/18 11:25:59;;;;;;;11.48;7.97;;;;;;;25.09;34.60;99540.50;4945241;28;20046;-88
2023/06/18 11:28:26;;;;;;;11.20;7.70;;;;;;;25.07;34.16;99531.75;4962555;28;20094;-87